Time;durP1;ratioP1;P1;durP2;ratioP2;P2;SDS_P1;SDS_P2;PMS_P1;PMS_P2;Temp;Humidity;BMP_temperature;BMP_pressure;BME280_temperature;BME280_humidity;BME280_pressure;Samples;Min_cycle;Max_cycle;Signal;HPM_P1;HPM_P2
2023/12/17 07:47:17;;;;;;;21.48;10.65;;;;;;;-0.91;100.00;98732.34;2083208;28;20569;-58
2023/12/17 07:48:19;;;;;;;27.70;13.05;;;;;;;-0.56;100.00;98739.47;2082040;28;20567;-58
2023/12/17 07:49:21;;;;;;;28.10;13.18;;;;;;;-0.18;98.24;98745.84;2082253;28;20610;-58
2023/12/17 07:50:23;;;;;;;32.90;14.93;;;;;;;0.21;97.24;98744.44;2076172;28;20213;-59
2023/12/17 07:51:24;;;;;;;25.73;12.20;;;;;;;0.61;95.13;98742.16;2072535;28;20205;-59
2023/12/17 07:52:26;;;;;;;20.58;11.43;;;;;;;0.92;93.18;98736.19;2074629;28;20293;-59
2023/12/17 07:53:27;;;;;;;20.23;10.82;;;;;;;1.23;91.30;98741.28;2074403;28;20197;-59
2023/12/17 07:54:29;;;;;;;28.27;9.60;;;;;;;1.33;90.39;98730.38;2070325;28;20635;-58
2023/12/17 07:55:30;;;;;;;14.50;8.70;;;;;;;1.69;89.56;98739.88;2070051;28;20287;-59
2023/12/17 07:56:32;;;;;;;14.27;8.68;;;;;;;2.19;87.81;98741.88;2070341;28;20580;-59
2023/12/17 07:57:34;;;;;;;17.38;8.50;;;;;;;2.43;86.86;98738.09;2070984;28;20669;-59
2023/12/17 07:58:35;;;;;;;20.17;8.38;;;;;;;2.49;84.96;98740.78;2073031;28;20194;-59
2023/12/17 07:59:37;;;;;;;17.60;8.73;;;;;;;2.97;84.45;98736.59;2072777;28;20193;-59
2023/12/17 08:00:39;;;;;;;17.33;7.80;;;;;;;3.27;83.08;98740.56;2072609;28;20225;-59
2023/12/17 08:01:41;;;;;;;15.18;7.40;;;;;;;3.55;81.85;98738.47;2074931;28;20293;-59
2023/12/17 08:02:42;;;;;;;11.00;6.38;;;;;;;3.64;80.86;98737.75;2073710;28;20193;-59
2023/12/17 08:03:44;;;;;;;9.70;5.40;;;;;;;3.72;79.87;98741.31;2077127;28;20236;-58
2023/12/17 08:04:46;;;;;;;7.63;4.78;;;;;;;3.81;79.37;98735.44;2077653;28;20197;-59
2023/12/17 08:05:48;;;;;;;11.40;5.30;;;;;;;4.05;79.41;98730.66;2071685;28;20275;-59
2023/12/17 08:06:49;;;;;;;10.65;5.10;;;;;;;4.25;78.16;98737.81;2071800;28;20620;-59
2023/12/17 08:07:51;;;;;;;14.27;5.00;;;;;;;4.27;78.16;98737.81;2073828;28;20250;-59
2023/12/17 08:08:53;;;;;;;15.18;5.45;;;;;;;4.33;77.01;98735.31;2074226;28;20266;-59
2023/12/17 08:09:55;;;;;;;9.98;5.28;;;;;;;4.60;76.08;98734.84;2072120;28;20665;-58
2023/12/17 08:10:56;;;;;;;9.43;4.93;;;;;;;4.48;76.50;98732.97;2073050;28;20194;-59
2023/12/17 08:11:58;;;;;;;7.80;4.55;;;;;;;4.72;75.64;98728.94;2073968;28;20204;-59
2023/12/17 08:12:59;;;;;;;8.43;5.32;;;;;;;5.02;74.95;98736.19;2074057;28;20224;-59
2023/12/17 08:14:01;;;;;;;6.65;4.60;;;;;;;5.21;74.39;98726.88;2073771;28;20590;-59
2023/12/17 08:15:04;;;;;;;9.48;5.30;;;;;;;5.46;72.80;98732.31;2072718;28;20266;-59
2023/12/17 08:16:06;;;;;;;7.75;5.45;;;;;;;5.41;73.68;98726.22;2073051;28;20200;-59
2023/12/17 08:17:07;;;;;;;8.98;5.35;;;;;;;5.07;74.15;98726.72;2072686;28;20198;-59
2023/12/17 08:18:09;;;;;;;7.15;5.13;;;;;;;4.99;75.18;98735.28;2074256;28;20205;-59
2023/12/17 08:19:10;;;;;;;7.30;5.45;;;;;;;5.30;74.20;98727.84;2073744;28;20202;-59
2023/12/17 08:20:12;;;;;;;13.88;6.43;;;;;;;5.49;73.60;98726.28;2072581;28;20232;-59
2023/12/17 08:21:13;;;;;;;81.57;35.47;;;;;;;5.96;71.49;98728.38;2070108;28;20202;-59
2023/12/17 08:22:15;;;;;;;15.07;8.43;;;;;;;5.87;71.25;98729.19;2071160;28;20206;-59
2023/12/17 08:23:17;;;;;;;15.45;8.07;;;;;;;6.53;69.96;98738.28;2073988;28;20279;-60
2023/12/17 08:24:18;;;;;;;10.77;6.28;;;;;;;6.58;68.52;98736.56;2076461;28;20347;-59
2023/12/17 08:25:20;;;;;;;16.25;7.57;;;;;;;6.60;67.99;98727.06;2073218;28;20252;-60
2023/12/17 08:26:21;;;;;;;11.77;7.00;;;;;;;6.55;67.63;98736.53;2072770;28;20197;-60
2023/12/17 08:27:23;;;;;;;17.02;9.15;;;;;;;6.72;67.76;98733.13;2073525;28;20221;-60
2023/12/17 08:28:25;;;;;;;50.58;29.35;;;;;;;6.77;66.81;98739.25;2070022;28;20198;-60
2023/12/17 08:29:28;;;;;;;21.73;10.55;;;;;;;6.90;66.08;98735.81;2074765;28;20193;-60
2023/12/17 08:30:30;;;;;;;9.75;6.38;;;;;;;6.89;65.78;98731.47;2073910;28;20643;-59
2023/12/17 08:31:33;;;;;;;11.68;6.60;;;;;;;7.14;66.30;98731.56;2073335;28;20209;-59
2023/12/17 08:32:34;;;;;;;9.20;5.88;;;;;;;7.12;65.30;98734.16;2070025;28;20280;-59
2023/12/17 08:33:36;;;;;;;10.95;6.45;;;;;;;7.16;65.70;98740.22;2071339;28;20206;-59
2023/12/17 08:34:38;;;;;;;8.70;6.15;;;;;;;6.41;68.09;98738.19;2070055;28;20206;-59
2023/12/17 08:35:41;;;;;;;11.10;6.00;;;;;;;6.40;69.01;98741.66;2072371;28;20229;-60
2023/12/17 08:36:43;;;;;;;9.25;6.22;;;;;;;6.50;69.43;98746.03;2074235;28;20285;-60
2023/12/17 08:37:45;;;;;;;10.02;5.68;;;;;;;6.49;69.77;98741.72;2070939;28;20208;-60
2023/12/17 08:38:47;;;;;;;8.82;5.25;;;;;;;7.04;67.58;98741.06;2072693;28;20202;-61
2023/12/17 08:39:48;;;;;;;9.32;6.60;;;;;;;7.53;66.43;98737.69;2074627;28;20778;-61
2023/12/17 08:40:50;;;;;;;10.93;6.03;;;;;;;7.90;64.95;98734.22;2073110;28;20225;-61
2023/12/17 08:41:52;;;;;;;11.23;7.13;;;;;;;8.14;64.13;98728.16;2075663;28;20280;-61
2023/12/17 08:42:53;;;;;;;13.00;7.35;;;;;;;7.92;63.80;98724.69;2073470;28;20201;-61
2023/12/17 08:43:55;;;;;;;8.43;5.80;;;;;;;8.28;62.04;98726.38;2075165;28;20276;-61
2023/12/17 08:44:56;;;;;;;11.02;6.32;;;;;;;8.13;62.93;98727.25;2073198;28;20586;-61
2023/12/17 08:45:58;;;;;;;8.48;5.55;;;;;;;7.88;63.46;98728.16;2073929;28;20284;-61
2023/12/17 08:46:59;;;;;;;9.60;5.78;;;;;;;8.00;63.43;98733.38;2074416;28;20712;-61
2023/12/17 08:48:02;;;;;;;13.25;5.88;;;;;;;7.91;64.09;98723.81;2074714;28;20633;-60
2023/12/17 08:49:05;;;;;;;7.72;5.25;;;;;;;8.18;63.82;98729.88;2074118;28;20209;-61
2023/12/17 08:50:08;;;;;;;11.70;5.88;;;;;;;8.45;63.05;98733.25;2073987;28;20209;-61
2023/12/17 08:51:10;;;;;;;8.27;4.85;;;;;;;8.47;62.94;98742.00;2081371;28;20192;-68
2023/12/17 08:52:12;;;;;;;7.35;5.40;;;;;;;8.71;62.07;98728.00;2073459;28;20685;-68
2023/12/17 08:53:14;;;;;;;10.73;5.47;;;;;;;8.77;61.63;98727.09;2078751;28;20308;-68
2023/12/17 08:54:16;;;;;;;11.52;5.70;;;;;;;8.92;61.05;98732.25;2078505;28;20288;-69
2023/12/17 08:55:17;;;;;;;8.00;4.85;;;;;;;9.10;60.56;98720.00;2071170;28;20224;-68
2023/12/17 08:56:19;;;;;;;8.43;5.10;;;;;;;9.59;59.58;98729.25;2074240;28;20197;-66
2023/12/17 08:57:23;;;;;;;10.05;4.88;;;;;;;9.75;58.55;98727.38;2073692;28;20672;-66
2023/12/17 08:58:24;;;;;;;9.60;5.40;;;;;;;9.92;57.60;98730.69;2068683;28;20238;-66
2023/12/17 08:59:26;;;;;;;6.85;5.03;;;;;;;9.53;58.81;98724.06;2068291;28;20656;-67
2023/12/17 09:00:27;;;;;;;7.82;4.55;;;;;;;9.70;58.44;98726.53;2066147;28;20218;-67
2023/12/17 09:01:29;;;;;;;8.50;4.63;;;;;;;9.46;59.26;98726.72;2068521;28;20202;-67
2023/12/17 09:02:31;;;;;;;9.88;5.13;;;;;;;9.38;59.45;98725.03;2068083;28;20297;-66
2023/12/17 09:03:32;;;;;;;7.78;4.47;;;;;;;9.52;59.60;98724.94;2069873;28;20264;-66
2023/12/17 09:04:34;;;;;;;13.32;5.72;;;;;;;9.77;58.04;98725.63;2067468;28;20209;-67
2023/12/17 09:05:35;;;;;;;8.68;5.50;;;;;;;10.49;57.13;98721.47;2067768;28;20795;-69
2023/12/17 09:06:44;;;;;;;7.85;4.95;;;;;;;10.45;55.85;98732.84;2071873;28;20205;-69
2023/12/17 09:07:46;;;;;;;6.72;4.32;;;;;;;10.34;56.15;98726.84;2070830;28;20210;-69
2023/12/17 09:08:47;;;;;;;8.90;4.82;;;;;;;10.39;55.72;98722.47;2067727;28;20291;-69
2023/12/17 09:09:49;;;;;;;9.10;5.68;;;;;;;10.30;57.00;98711.19;2066403;28;20315;-69
2023/12/17 09:10:51;;;;;;;11.10;4.70;;;;;;;9.63;57.93;98718.75;2071310;28;20222;-69
2023/12/17 09:11:52;;;;;;;9.45;5.88;;;;;;;9.34;58.49;98721.59;2072524;28;20201;-66
2023/12/17 09:12:57;;;;;;;14.82;5.80;;;;;;;9.77;57.94;98725.63;2068018;28;20230;-66
2023/12/17 09:13:58;;;;;;;24.63;16.55;;;;;;;10.04;57.67;98724.50;2066542;28;20234;-66
2023/12/17 09:15:00;;;;;;;17.05;10.32;;;;;;;10.98;57.37;98730.44;2064835;28;20230;-67
2023/12/17 09:16:02;;;;;;;41.08;25.55;;;;;;;10.98;55.92;98712.16;2066917;28;20562;-66
2023/12/17 09:17:03;;;;;;;67.78;42.25;;;;;;;10.88;55.57;98721.00;2068501;28;20255;-66
2023/12/17 09:18:08;;;;;;;17.08;11.57;;;;;;;10.29;56.13;98719.91;2067734;28;20676;-67
2023/12/17 09:19:10;;;;;;;11.15;8.27;;;;;;;10.28;56.64;98727.75;2066999;28;20226;-68
2023/12/17 09:20:13;;;;;;;11.88;8.88;;;;;;;10.44;57.37;98723.28;2066606;28;20237;-67
2023/12/17 09:21:15;;;;;;;16.30;9.27;;;;;;;10.19;57.02;98725.25;2066062;28;20237;-67
2023/12/17 09:22:17;;;;;;;16.33;10.73;;;;;;;10.16;56.95;98723.53;2066103;28;20202;-67
2023/12/17 09:23:18;;;;;;;18.08;10.48;;;;;;;9.91;57.67;98725.50;2068593;28;20739;-67
2023/12/17 09:24:21;;;;;;;13.82;10.48;;;;;;;10.30;58.23;98726.84;2068090;28;20230;-66
2023/12/17 09:25:23;;;;;;;19.17;9.95;;;;;;;10.40;58.31;98725.06;2067009;28;20233;-66
2023/12/17 09:26:25;;;;;;;13.73;7.75;;;;;;;11.77;54.61;98722.31;2067769;28;20221;-67
2023/12/17 09:27:26;;;;;;;14.02;7.57;;;;;;;11.28;55.23;98728.31;2067331;28;20319;-69
2023/12/17 09:28:28;;;;;;;9.95;6.80;;;;;;;11.22;55.29;98710.09;2068702;28;20233;-69
2023/12/17 09:29:29;;;;;;;8.30;5.45;;;;;;;11.37;54.77;98662.78;2068928;28;20206;-69
2023/12/17 09:30:31;;;;;;;15.25;6.35;;;;;;;10.99;55.53;98726.97;2067007;28;20260;-69
2023/12/17 09:31:33;;;;;;;9.38;4.43;;;;;;;10.50;57.12;98723.22;2064238;28;20213;-69
2023/12/17 09:32:35;;;;;;;10.73;5.78;;;;;;;10.46;56.77;98726.72;2066241;28;20202;-63
2023/12/17 09:33:37;;;;;;;8.95;6.32;;;;;;;11.30;55.66;98723.94;2065603;28;20353;-63
2023/12/17 09:34:38;;;;;;;15.05;5.82;;;;;;;11.83;55.11;98725.72;2068246;28;20203;-61
2023/12/17 09:35:40;;;;;;;11.35;6.10;;;;;;;13.55;50.86;98720.63;2063528;28;20226;-66
2023/12/17 09:36:41;;;;;;;24.50;5.90;;;;;;;12.24;52.38;98717.19;2064657;28;20206;-66
2023/12/17 09:37:43;;;;;;;15.07;6.65;;;;;;;11.50;55.34;98723.63;2066564;28;20333;-66
2023/12/17 09:38:44;;;;;;;14.85;7.50;;;;;;;11.27;55.95;98722.22;2066670;28;20601;-66
2023/12/17 09:39:46;;;;;;;13.48;5.72;;;;;;;11.29;56.66;98719.59;2071037;28;20217;-66
2023/12/17 09:40:48;;;;;;;11.23;5.35;;;;;;;11.72;55.37;98718.06;2068420;28;20249;-66
2023/12/17 09:41:49;;;;;;;10.25;5.40;;;;;;;12.85;52.95;98719.50;2067064;28;20674;-66
2023/12/17 09:42:53;;;;;;;11.73;5.70;;;;;;;12.50;53.22;98709.72;2068503;28;20281;-66
2023/12/17 09:43:55;;;;;;;8.85;4.95;;;;;;;11.70;54.49;98719.84;2068280;28;20198;-66
2023/12/17 09:44:57;;;;;;;7.03;5.10;;;;;;;12.15;54.52;98719.09;2065336;28;20206;-66
2023/12/17 09:45:58;;;;;;;10.25;6.20;;;;;;;12.58;53.84;98720.91;2067537;28;20681;-66
2023/12/17 09:47:01;;;;;;;10.85;6.35;;;;;;;12.88;53.52;98711.56;2068012;28;20285;-66
2023/12/17 09:48:02;;;;;;;8.95;6.07;;;;;;;11.87;54.75;98719.53;2066524;28;20257;-66
2023/12/17 09:49:04;;;;;;;10.05;5.55;;;;;;;12.70;54.10;98717.19;2066457;28;20209;-68
2023/12/17 09:50:08;;;;;;;9.50;5.45;;;;;;;12.76;53.90;98711.84;2064567;28;20207;-62
2023/12/17 09:51:12;;;;;;;9.27;5.32;;;;;;;12.72;52.87;98716.25;2064048;28;20721;-62
2023/12/17 09:52:18;;;;;;;9.60;5.50;;;;;;;12.83;52.78;98717.81;2067272;28;20224;-62
2023/12/17 09:53:21;;;;;;;7.03;4.97;;;;;;;12.71;53.30;98714.53;2067089;28;20566;-62
2023/12/17 09:54:22;;;;;;;11.25;5.20;;;;;;;12.94;52.76;98705.31;2065838;28;20225;-62
2023/12/17 09:55:24;;;;;;;10.63;5.60;;;;;;;13.03;51.90;98705.13;2066920;28;20581;-62
2023/12/17 09:56:25;;;;;;;8.45;6.10;;;;;;;12.56;54.00;98710.47;2068884;28;20216;-62
2023/12/17 09:57:27;;;;;;;11.90;6.55;;;;;;;12.17;54.48;98710.31;2063999;28;20202;-62
2023/12/17 09:58:28;;;;;;;12.05;6.25;;;;;;;12.34;53.90;98715.25;2067245;28;20189;-61
2023/12/17 09:59:30;;;;;;;8.10;5.80;;;;;;;12.85;53.25;98716.88;2063953;28;20271;-62
2023/12/17 10:00:32;;;;;;;15.07;6.28;;;;;;;12.99;53.20;98715.69;2063123;28;20225;-61
2023/12/17 10:01:34;;;;;;;21.00;6.40;;;;;;;13.51;51.98;98713.69;2071419;28;20212;-61
2023/12/17 10:02:36;;;;;;;12.77;6.07;;;;;;;13.28;52.39;98715.09;2067537;28;20232;-61
2023/12/17 10:03:40;;;;;;;8.95;6.15;;;;;;;12.57;54.01;98716.59;2066319;28;20202;-60
2023/12/17 10:04:42;;;;;;;10.65;6.20;;;;;;;12.63;53.90;98720.81;2064903;28;20248;-61
2023/12/17 10:05:50;;;;;;;9.10;5.90;;;;;;;11.99;55.09;98711.53;2048045;28;20249;-61
2023/12/17 10:06:52;;;;;;;10.05;5.65;;;;;;;12.57;54.82;98716.59;2066892;28;20646;-62
2023/12/17 10:07:55;;;;;;;10.05;5.93;;;;;;;12.46;53.84;98718.53;2063492;28;20206;-61
2023/12/17 10:08:58;;;;;;;10.30;5.75;;;;;;;13.51;52.51;98711.06;2064280;28;20569;-62
2023/12/17 10:10:00;;;;;;;7.90;5.28;;;;;;;12.78;53.84;98709.16;2066805;28;20198;-62
2023/12/17 10:11:01;;;;;;;9.38;6.60;;;;;;;12.48;54.98;98717.63;2066677;28;20195;-62
2023/12/17 10:12:03;;;;;;;15.43;5.88;;;;;;;12.93;55.19;98713.22;2064555;28;20198;-63
2023/12/17 10:13:04;;;;;;;8.95;4.97;;;;;;;12.69;54.87;98711.06;2064813;28;20206;-61
2023/12/17 10:14:19;;;;;;;10.95;5.63;;;;;;;13.15;53.82;98703.13;2067041;28;20725;-61
2023/12/17 10:15:21;;;;;;;11.88;6.00;;;;;;;13.31;53.20;98703.66;2051849;28;20582;-61
2023/12/17 10:16:23;;;;;;;10.05;6.30;;;;;;;13.42;53.44;98696.44;2068144;28;20199;-62
2023/12/17 10:17:24;;;;;;;6.82;5.18;;;;;;;13.84;52.34;98672.63;2068838;28;20650;-59
2023/12/17 10:18:26;;;;;;;8.60;6.25;;;;;;;13.02;52.98;98682.41;2067242;28;20198;-59
2023/12/17 10:19:27;;;;;;;19.52;6.53;;;;;;;13.32;52.47;98686.97;2063679;28;20700;-59
2023/12/17 10:20:33;;;;;;;9.98;5.75;;;;;;;13.88;52.45;98697.06;2062998;28;20240;-59
2023/12/17 10:21:34;;;;;;;7.90;5.70;;;;;;;13.63;52.43;98691.56;2063826;28;20206;-59
2023/12/17 10:22:36;;;;;;;11.48;5.85;;;;;;;13.36;53.99;98686.03;2065440;28;20206;-60
2023/12/17 10:23:48;;;;;;;12.15;4.95;;;;;;;13.59;53.71;98677.63;2068426;28;20436;-59
2023/12/17 10:24:50;;;;;;;9.57;5.35;;;;;;;13.73;53.50;98690.41;2068217;28;20606;-59
2023/12/17 10:25:59;;;;;;;10.43;5.65;;;;;;;14.69;50.94;98687.91;2072579;28;20569;-59
2023/12/17 10:27:22;;;;;;;9.70;6.13;;;;;;;14.16;51.99;98685.84;2073675;28;20571;-59
2023/12/17 10:28:24;;;;;;;9.50;5.68;;;;;;;14.25;51.90;98684.72;2066697;28;20201;-59
2023/12/17 10:29:27;;;;;;;10.50;6.72;;;;;;;13.74;53.30;98680.78;2067623;28;20284;-59
2023/12/17 10:30:33;;;;;;;10.98;5.88;;;;;;;14.16;53.39;98680.56;2066823;28;20229;-59
2023/12/17 10:31:37;;;;;;;11.00;6.43;;;;;;;14.78;52.31;98679.75;2066712;28;20717;-59
2023/12/17 10:32:43;;;;;;;7.25;5.05;;;;;;;14.35;52.42;98673.91;2065568;28;20194;-62
2023/12/17 10:33:58;;;;;;;9.68;5.85;;;;;;;14.61;52.39;98677.56;2073071;28;20197;-62
2023/12/17 10:35:01;;;;;;;6.93;4.65;;;;;;;14.34;52.68;98634.53;2071384;28;20287;-63
2023/12/17 10:36:04;;;;;;;9.02;4.35;;;;;;;15.33;51.77;98669.28;2063988;28;20202;-62
2023/12/17 10:37:06;;;;;;;8.63;5.63;;;;;;;15.47;50.89;98668.00;2065940;28;20203;-63
2023/12/17 10:38:10;;;;;;;7.28;4.60;;;;;;;15.03;51.56;98657.94;2070055;28;20245;-62
2023/12/17 10:39:16;;;;;;;10.45;4.05;;;;;;;16.22;50.11;98666.38;2067515;28;20539;-68
2023/12/17 10:40:18;;;;;;;9.05;4.75;;;;;;;16.31;50.07;98656.34;2070154;28;20622;-68
2023/12/17 10:41:21;;;;;;;16.27;4.65;;;;;;;17.04;48.04;98653.69;2070656;28;20649;-68
2023/12/17 10:42:24;;;;;;;6.45;3.72;;;;;;;16.65;48.05;98664.81;2066679;28;20293;-68
2023/12/17 10:43:28;;;;;;;7.43;4.45;;;;;;;15.16;50.46;98661.06;2074112;28;20193;-68
2023/12/17 10:44:29;;;;;;;6.75;4.13;;;;;;;14.78;52.44;98663.09;2066296;28;20229;-68
2023/12/17 10:45:32;;;;;;;9.35;4.47;;;;;;;15.34;50.95;98673.66;2056966;28;20713;-68
2023/12/17 10:46:34;;;;;;;10.30;4.18;;;;;;;15.03;51.79;98657.94;2067665;28;20190;-68
2023/12/17 10:47:37;;;;;;;5.93;3.53;;;;;;;15.28;51.00;98673.84;2068483;28;20654;-68
2023/12/17 10:48:41;;;;;;;7.00;3.80;;;;;;;14.94;52.43;98658.25;2067680;28;20681;-68
2023/12/17 10:49:49;;;;;;;5.85;3.70;;;;;;;15.37;50.93;98651.63;2067313;28;20198;-68
2023/12/17 10:50:51;;;;;;;8.20;4.10;;;;;;;16.09;50.51;98658.91;2068316;28;20268;-63
2023/12/17 10:51:53;;;;;;;6.30;3.53;;;;;;;16.03;50.60;98635.41;2067445;28;20201;-63
2023/12/17 10:52:55;;;;;;;6.50;3.90;;;;;;;15.82;50.09;98653.69;2067599;28;20201;-63
2023/12/17 10:53:56;;;;;;;6.90;3.70;;;;;;;16.09;49.90;98658.06;2067614;28;20637;-63
2023/12/17 10:54:58;;;;;;;5.30;3.63;;;;;;;16.31;50.91;98655.50;2066766;28;20293;-63
2023/12/17 10:56:00;;;;;;;8.80;3.75;;;;;;;15.75;51.06;98657.41;2065850;28;20930;-63
2023/12/17 10:57:03;;;;;;;9.55;4.53;;;;;;;15.48;51.28;98644.25;2066369;28;20206;-63
2023/12/17 10:58:15;;;;;;;6.55;3.92;;;;;;;15.41;51.45;98649.75;2067414;28;20201;-63
2023/12/17 10:59:48;;;;;;;6.75;3.45;;;;;;;16.03;50.95;98655.63;2066973;28;20833;-63
2023/12/17 11:00:50;;;;;;;7.47;3.88;;;;;;;15.99;50.05;98649.59;2059843;28;20566;-63
2023/12/17 11:01:55;;;;;;;7.78;3.75;;;;;;;15.58;49.47;98646.56;2066107;28;20312;-63
2023/12/17 11:03:00;;;;;;;4.93;3.45;;;;;;;15.83;49.87;98650.16;2069472;28;20194;-62
2023/12/17 11:04:04;;;;;;;5.85;4.10;;;;;;;16.04;49.36;98641.56;2068944;28;20669;-63
2023/12/17 11:05:06;;;;;;;9.40;5.18;;;;;;;15.59;50.00;98637.75;2070228;28;20927;-63
2023/12/17 11:06:08;;;;;;;10.38;4.60;;;;;;;15.32;50.16;98643.03;2071914;28;20202;-63
2023/12/17 11:07:09;;;;;;;5.93;3.35;;;;;;;15.31;49.08;98631.66;2067269;28;20205;-63
2023/12/17 11:08:23;;;;;;;4.57;3.05;;;;;;;15.59;48.51;98645.66;2063587;28;20198;-64
2023/12/17 11:09:25;;;;;;;5.93;4.95;;;;;;;16.29;49.15;98623.06;2064466;28;20230;-64
2023/12/17 11:10:26;;;;;;;8.05;5.50;;;;;;;16.28;48.32;98638.03;2070505;28;20225;-63
2023/12/17 11:11:31;;;;;;;9.38;5.68;;;;;;;15.43;50.08;98626.88;2066219;28;20198;-64
2023/12/17 11:12:34;;;;;;;10.20;5.90;;;;;;;15.76;50.38;98639.84;2067554;28;20202;-63
2023/12/17 11:13:36;;;;;;;10.52;7.10;;;;;;;16.01;50.03;98637.25;2066658;28;20230;-64
2023/12/17 11:14:38;;;;;;;10.35;6.20;;;;;;;15.36;49.99;98623.56;2067308;28;20205;-63
2023/12/17 11:15:40;;;;;;;8.45;5.13;;;;;;;14.82;50.83;98638.44;2064595;28;20879;-68
2023/12/17 11:16:41;;;;;;;10.45;6.43;;;;;;;14.57;51.38;98631.22;2063284;28;20194;-68
2023/12/17 11:17:43;;;;;;;14.13;6.10;;;;;;;14.42;51.44;98636.94;2063864;28;20198;-68
2023/12/17 11:18:47;;;;;;;12.18;6.10;;;;;;;14.39;51.06;98624.75;2067351;28;20191;-68
2023/12/17 11:19:58;;;;;;;11.82;5.85;;;;;;;14.54;51.11;98623.44;2063594;28;20700;-68
2023/12/17 11:20:59;;;;;;;10.13;5.85;;;;;;;14.44;51.12;98629.88;2064479;28;20357;-69
2023/12/17 11:22:01;;;;;;;9.10;5.45;;;;;;;14.31;50.94;98626.72;2065444;28;20680;-68
2023/12/17 11:23:04;;;;;;;6.35;4.05;;;;;;;14.26;51.19;98631.25;2067832;28;20201;-68
2023/12/17 11:24:07;;;;;;;9.82;4.45;;;;;;;15.02;49.75;98622.91;2066665;28;20293;-68
2023/12/17 11:25:11;;;;;;;6.80;4.10;;;;;;;14.21;50.44;98621.72;2072253;28;20197;-68
2023/12/17 11:26:16;;;;;;;9.57;3.88;;;;;;;14.21;50.64;98626.13;2073658;28;20543;-68
2023/12/17 11:27:19;;;;;;;8.20;4.32;;;;;;;14.24;50.69;98615.53;2066471;28;20202;-68
2023/12/17 11:28:25;;;;;;;12.35;4.85;;;;;;;14.10;51.32;98625.56;2065984;28;20244;-68
2023/12/17 11:29:35;;;;;;;7.75;4.18;;;;;;;14.50;50.31;98625.31;2066487;28;20221;-68
2023/12/17 11:30:38;;;;;;;6.20;3.42;;;;;;;14.76;49.85;98615.81;2064319;28;20264;-69
2023/12/17 11:31:40;;;;;;;5.97;3.83;;;;;;;14.78;49.94;98618.38;2067035;28;20202;-68
2023/12/17 11:32:41;;;;;;;5.45;3.63;;;;;;;14.92;50.03;98625.84;2067749;28;20306;-68
2023/12/17 11:33:43;;;;;;;6.18;3.95;;;;;;;15.04;50.16;98612.31;2067958;28;20198;-63
2023/12/17 11:34:48;;;;;;;7.05;4.00;;;;;;;15.00;49.94;98616.81;2067191;28;20250;-63
2023/12/17 11:35:51;;;;;;;6.57;4.38;;;;;;;15.35;49.36;98612.19;2061164;28;20349;-64
2023/12/17 11:36:54;;;;;;;8.88;5.65;;;;;;;15.45;50.06;98604.88;2067307;28;20749;-63
2023/12/17 11:37:56;;;;;;;7.38;4.75;;;;;;;15.58;50.06;98591.25;2066381;28;20205;-63
2023/12/17 11:38:58;;;;;;;6.70;3.47;;;;;;;15.26;50.96;98601.09;2066893;28;20254;-63
2023/12/17 11:40:00;;;;;;;6.97;3.85;;;;;;;14.52;51.64;98604.22;2067111;28;20198;-63
2023/12/17 11:41:03;;;;;;;6.15;4.00;;;;;;;12.96;54.47;98610.88;2066036;28;20221;-63
2023/12/17 11:42:05;;;;;;;8.98;4.75;;;;;;;13.01;55.70;98606.41;2068375;28;20202;-63
2023/12/17 11:43:07;;;;;;;5.78;3.33;;;;;;;14.53;53.29;98609.44;2067194;28;20228;-63
2023/12/17 11:44:09;;;;;;;5.25;3.63;;;;;;;13.93;54.87;98605.00;2067693;28;20578;-63
2023/12/17 11:45:10;;;;;;;6.38;3.50;;;;;;;14.58;53.40;98603.19;2065815;28;20198;-63
2023/12/17 11:46:13;;;;;;;6.72;3.55;;;;;;;14.30;53.08;98601.38;2066464;28;20198;-63
2023/12/17 11:47:16;;;;;;;8.40;4.20;;;;;;;15.49;51.57;98602.97;2066616;28;20237;-68
2023/12/17 11:48:21;;;;;;;7.75;3.25;;;;;;;15.02;51.61;98582.59;2066707;28;20248;-68
2023/12/17 11:49:24;;;;;;;7.57;4.35;;;;;;;15.07;51.52;98587.69;2067360;28;20217;-68
2023/12/17 11:50:27;;;;;;;15.02;5.82;;;;;;;15.38;52.08;98595.44;2067739;28;20588;-69
2023/12/17 11:51:30;;;;;;;71.13;43.97;;;;;;;15.14;51.91;98595.31;2067527;28;20205;-65
2023/12/17 11:52:32;;;;;;;8.82;5.15;;;;;;;15.40;50.97;98595.38;2066336;28;20288;-65
2023/12/17 11:53:41;;;;;;;19.02;12.73;;;;;;;15.68;51.34;98598.81;2063540;28;20198;-68
2023/12/17 11:54:43;;;;;;;8.80;3.30;;;;;;;15.13;51.59;98596.22;2066250;28;20806;-68
2023/12/17 11:55:49;;;;;;;6.32;3.50;;;;;;;14.85;52.96;98598.88;2065237;28;20276;-68
2023/12/17 11:56:51;;;;;;;5.07;2.80;;;;;;;15.72;51.17;98588.16;2063949;28;20199;-68
2023/12/17 11:58:00;;;;;;;4.20;2.85;;;;;;;15.53;51.58;98601.97;2063665;28;20198;-67
2023/12/17 11:59:01;;;;;;;9.60;3.25;;;;;;;15.52;51.75;98582.66;2063927;28;20245;-68
2023/12/17 12:00:11;;;;;;;6.60;3.35;;;;;;;15.62;51.71;98592.91;2063225;28;20224;-67
2023/12/17 12:01:13;;;;;;;6.63;2.97;;;;;;;15.48;52.08;98593.38;2065463;28;20828;-68
2023/12/17 12:02:16;;;;;;;4.53;2.88;;;;;;;14.99;52.38;98591.41;2068924;28;20237;-68
2023/12/17 12:03:18;;;;;;;4.57;2.60;;;;;;;14.92;52.71;98589.91;2068122;28;20202;-67
2023/12/17 12:04:20;;;;;;;6.95;2.80;;;;;;;15.51;52.13;98588.00;2066771;28;20206;-68
2023/12/17 12:05:22;;;;;;;4.13;2.50;;;;;;;15.17;51.51;98591.72;2055261;28;20257;-67
2023/12/17 12:06:24;;;;;;;4.20;2.60;;;;;;;14.99;51.07;98591.41;2064639;28;20194;-62
2023/12/17 12:07:25;;;;;;;6.70;2.92;;;;;;;15.68;50.87;98592.69;2065882;28;20210;-62
2023/12/17 12:08:33;;;;;;;4.60;2.22;;;;;;;14.72;52.97;98590.50;2065120;28;20646;-62
2023/12/17 12:09:34;;;;;;;3.65;2.22;;;;;;;14.23;53.66;98595.41;2066712;28;20673;-62
2023/12/17 12:10:36;;;;;;;4.03;2.45;;;;;;;15.65;51.33;98593.63;2066196;28;20755;-62
2023/12/17 12:11:37;;;;;;;3.15;2.15;;;;;;;15.77;50.29;98586.22;2066812;28;20193;-62
2023/12/17 12:12:39;;;;;;;4.00;2.80;;;;;;;16.62;49.57;98584.03;2067857;28;20201;-63
2023/12/17 12:13:43;;;;;;;4.55;2.55;;;;;;;17.16;48.84;98588.16;2067635;28;20198;-63
2023/12/17 12:14:48;;;;;;;4.68;2.60;;;;;;;17.59;47.67;98581.94;2065324;28;20208;-62
2023/12/17 12:15:50;;;;;;;3.08;1.90;;;;;;;17.62;45.50;98583.56;2061713;28;20234;-63
2023/12/17 12:16:54;;;;;;;3.13;1.70;;;;;;;17.85;45.10;98587.00;2066850;28;20193;-63
2023/12/17 12:17:56;;;;;;;3.67;2.22;;;;;;;17.94;45.80;98586.63;2063929;28;20745;-63
2023/12/17 12:19:02;;;;;;;3.88;2.20;;;;;;;17.68;45.95;98590.41;2068676;28;20844;-63
2023/12/17 12:20:06;;;;;;;3.25;1.90;;;;;;;15.58;48.52;98586.88;2065559;28;20646;-63
2023/12/17 12:21:19;;;;;;;3.05;2.05;;;;;;;15.84;49.69;98582.50;2063129;28;20778;-63
2023/12/17 12:22:27;;;;;;;3.45;2.10;;;;;;;16.06;49.31;98576.47;2064153;28;20416;-63
2023/12/17 12:23:28;;;;;;;3.92;2.17;;;;;;;14.47;52.64;98580.69;2066283;28;20203;-63
2023/12/17 12:24:30;;;;;;;3.35;2.00;;;;;;;14.91;52.29;98579.44;2066873;28;20205;-62
2023/12/17 12:25:31;;;;;;;4.15;1.95;;;;;;;15.85;51.15;98572.84;2065406;28;20249;-63
2023/12/17 12:26:34;;;;;;;3.50;2.40;;;;;;;16.56;49.72;98580.78;2064174;28;20202;-63
2023/12/17 12:27:44;;;;;;;5.55;2.63;;;;;;;17.09;48.97;98572.56;2063566;28;20206;-68
2023/12/17 12:28:53;;;;;;;4.55;2.25;;;;;;;17.66;46.12;98571.09;2070243;28;20213;-68
2023/12/17 12:29:58;;;;;;;9.70;2.17;;;;;;;17.42;47.06;98579.13;2066835;28;20710;-68
2023/12/17 12:31:09;;;;;;;3.30;2.30;;;;;;;17.28;47.25;98577.06;2061694;28;20673;-68
2023/12/17 12:32:10;;;;;;;3.88;2.15;;;;;;;17.89;47.30;98572.72;2062678;28;20313;-68
2023/12/17 12:33:14;;;;;;;4.68;2.35;;;;;;;17.36;47.29;98574.97;2066418;28;20217;-68
2023/12/17 12:34:15;;;;;;;4.55;2.25;;;;;;;17.32;47.14;98570.75;2066631;28;20190;-68
2023/12/17 12:35:23;;;;;;;3.38;1.85;;;;;;;17.66;46.46;98564.06;2068574;28;20256;-68
2023/12/17 12:36:44;;;;;;;3.70;2.10;;;;;;;16.83;46.49;98562.16;2067762;28;20198;-68
2023/12/17 12:37:46;;;;;;;4.18;2.40;;;;;;;16.51;48.04;98557.22;2067021;28;20738;-68
2023/12/17 12:39:02;;;;;;;4.80;3.10;;;;;;;16.80;48.57;98549.94;2068107;28;20198;-63
2023/12/17 12:40:06;;;;;;;6.43;3.50;;;;;;;16.30;48.95;98549.22;2068363;28;20200;-63
2023/12/17 12:41:12;;;;;;;8.63;3.70;;;;;;;15.99;50.73;98552.13;2065951;28;20238;-63
2023/12/17 12:42:17;;;;;;;7.20;3.70;;;;;;;15.49;50.43;98548.56;2067504;28;20280;-63
2023/12/17 12:43:21;;;;;;;6.60;3.80;;;;;;;14.93;51.24;98552.19;2068266;28;20209;-63